Pineville, Kentucky
Current Conditions -  °F | °C
As of 7:15 PM on Sunday 23 Nov 2014 (Local Time) from K1A6 Reporting Station
Light Rain Light Rain  
Wind Chill: 56°   Ceiling: 1700
Heat Index: 56°   Visibility: 10mi
Dew Point: 53°   Wind: 3mph
Humidity: 88%   Direction: 190°S
Pressure: 29.58"   Gusts: 18mph
Location:  36.76°N, 83.69°W
Report Text: K1A6 240015Z AUTO 19003G16KT 10SM -RA OVC017 14/12 A2958 RMK AO2 T01350116
Loading
Personal Weather Stations






























Interactive Weather Map New forecast layout! Learn more

10-Day Weather Forecast

Advertisements
Track Severe Weather on mobile